createdAt,value
2018-12-14T00:03:27.218Z,19.63
2018-12-14T00:08:31.307Z,25.27
2018-12-14T00:13:35.377Z,22.53
2018-12-14T00:18:39.462Z,21.90
2018-12-14T00:23:43.989Z,22.47
2018-12-14T00:28:48.110Z,21.53
2018-12-14T00:33:52.180Z,18.40
2018-12-14T00:38:56.205Z,18.67
2018-12-14T00:44:00.294Z,19.63
2018-12-14T00:49:04.815Z,17.73
2018-12-14T00:54:09.643Z,16.87
2018-12-14T00:59:13.697Z,17.70
2018-12-14T01:04:17.806Z,18.17
2018-12-14T01:09:21.920Z,16.17
2018-12-14T01:14:26.027Z,18.50
2018-12-14T01:19:31.150Z,16.93
2018-12-14T01:24:35.328Z,17.17
2018-12-14T01:29:39.435Z,15.20
2018-12-14T01:34:43.499Z,15.30
2018-12-14T01:39:47.594Z,14.90
2018-12-14T01:44:51.694Z,19.23
2018-12-14T01:49:55.775Z,15.20
2018-12-14T01:55:00.224Z,16.50
2018-12-14T02:00:06.198Z,15.03
2018-12-14T02:05:10.298Z,17.20
2018-12-14T02:10:14.828Z,12.93
2018-12-14T02:15:18.986Z,13.17
2018-12-14T02:20:23.025Z,12.77
2018-12-14T02:25:27.081Z,10.77
2018-12-14T02:30:41.966Z,12.70
2018-12-14T02:35:46.072Z,11.77
2018-12-14T02:40:50.148Z,10.93
2018-12-14T02:45:54.239Z,10.60
2018-12-14T02:50:58.310Z,12.00
2018-12-14T02:56:02.422Z,11.87
2018-12-14T03:01:06.577Z,14.47
2018-12-14T03:06:11.118Z,13.87
2018-12-14T03:11:15.178Z,12.27
2018-12-14T03:16:19.306Z,13.50
2018-12-14T03:21:23.402Z,14.10
2018-12-14T03:26:27.462Z,13.67
2018-12-14T03:31:31.550Z,14.73
2018-12-14T03:36:35.611Z,12.97
2018-12-14T03:41:40.172Z,15.43
2018-12-14T03:46:44.273Z,16.23
2018-12-14T03:51:48.342Z,13.83
2018-12-14T03:56:52.483Z,18.43
2018-12-14T04:01:56.557Z,15.83
2018-12-14T04:07:00.627Z,15.40
2018-12-14T04:12:04.715Z,15.00
2018-12-14T04:17:08.807Z,17.40
2018-12-14T04:22:12.995Z,13.90
2018-12-14T04:27:17.131Z,15.90
2018-12-14T04:32:21.464Z,16.87
2018-12-14T04:37:25.555Z,14.63
2018-12-14T04:42:30.078Z,14.80
2018-12-14T04:47:34.178Z,14.33
2018-12-14T04:52:38.257Z,14.23
2018-12-14T04:57:42.325Z,11.67
2018-12-14T05:02:46.409Z,12.23
2018-12-14T05:07:50.485Z,12.33
2018-12-14T05:12:56.307Z,13.83
2018-12-14T05:18:00.672Z,13.10
2018-12-14T05:23:05.228Z,12.43
2018-12-14T05:28:09.300Z,12.57
2018-12-14T05:33:13.366Z,12.97
2018-12-14T05:38:17.433Z,12.83
2018-12-14T05:43:21.527Z,15.87
2018-12-14T05:48:25.596Z,13.63
2018-12-14T05:53:29.678Z,15.87
2018-12-14T05:58:33.742Z,15.90
2018-12-14T06:03:37.829Z,18.40
2018-12-14T06:08:41.886Z,15.57
2018-12-14T06:13:46.000Z,15.33
2018-12-14T06:18:50.104Z,20.37
2018-12-14T06:23:54.197Z,17.07
2018-12-14T06:28:58.242Z,18.17
2018-12-14T06:34:02.299Z,17.83
2018-12-14T06:39:07.759Z,14.73
2018-12-14T06:44:11.844Z,18.47
2018-12-14T06:49:15.931Z,16.80
2018-12-14T06:54:19.992Z,14.60
2018-12-14T06:59:24.065Z,14.37
2018-12-14T07:04:28.162Z,15.17
2018-12-14T07:09:32.253Z,17.77
2018-12-14T07:14:36.388Z,15.20
2018-12-14T07:19:40.463Z,14.63
2018-12-14T07:24:44.539Z,17.90
2018-12-14T07:29:48.639Z,18.37
2018-12-14T07:34:52.757Z,18.37
2018-12-14T07:39:56.827Z,18.50
2018-12-14T07:45:00.912Z,17.57
2018-12-14T07:50:06.647Z,19.00
2018-12-14T07:55:10.745Z,17.37
2018-12-14T08:00:14.818Z,20.33
2018-12-14T08:05:18.907Z,20.03
2018-12-14T08:10:23.559Z,17.80
2018-12-14T08:15:27.928Z,20.83
2018-12-14T08:20:32.111Z,17.80
2018-12-14T08:25:36.915Z,21.57
2018-12-14T08:30:40.979Z,16.77
2018-12-14T08:35:45.052Z,16.27
2018-12-14T08:40:49.161Z,17.00
2018-12-14T08:45:53.237Z,18.73
2018-12-14T08:50:57.297Z,17.37
2018-12-14T08:56:01.419Z,17.77
2018-12-14T09:01:05.520Z,15.47
2018-12-14T09:06:09.634Z,18.97
2018-12-14T09:11:13.739Z,16.43
2018-12-14T09:16:17.824Z,17.97
2018-12-14T09:21:21.932Z,13.77
2018-12-14T09:26:26.019Z,15.87
2018-12-14T09:31:30.417Z,16.30
2018-12-14T09:36:34.490Z,15.50
2018-12-14T09:41:38.581Z,18.27
2018-12-14T09:46:42.750Z,16.03
2018-12-14T09:51:46.812Z,14.57
2018-12-14T09:56:50.894Z,16.10
2018-12-14T10:01:54.965Z,14.57
2018-12-14T10:06:59.044Z,13.53
2018-12-14T10:12:03.124Z,16.93
2018-12-14T10:17:07.250Z,12.57
2018-12-14T10:27:21.499Z,10.93
2018-12-14T10:32:25.615Z,11.43
2018-12-14T10:37:29.680Z,11.97
2018-12-14T10:42:33.809Z,12.07
2018-12-14T10:47:37.898Z,12.27
2018-12-14T10:52:42.001Z,13.80
2018-12-14T10:57:46.430Z,10.87
2018-12-14T11:02:50.532Z,11.50
2018-12-14T11:07:54.596Z,13.60
2018-12-14T11:12:58.688Z,13.30
2018-12-14T11:18:02.824Z,14.40
2018-12-14T11:23:06.892Z,13.93
2018-12-14T11:28:11.019Z,11.73
2018-12-14T11:33:15.086Z,11.90
2018-12-14T11:38:19.231Z,11.60
2018-12-14T11:43:23.352Z,12.60
2018-12-14T11:48:27.422Z,11.87
2018-12-14T11:53:31.510Z,15.73
2018-12-14T11:58:35.632Z,12.50
2018-12-14T12:03:42.789Z,12.37
2018-12-14T12:08:45.843Z,12.57
2018-12-14T12:13:49.935Z,11.63
2018-12-14T12:18:54.000Z,12.03
2018-12-14T12:23:58.062Z,11.80
2018-12-14T12:29:02.146Z,13.33
2018-12-14T12:34:06.250Z,13.70
2018-12-14T12:39:10.424Z,12.73
2018-12-14T12:44:14.852Z,13.23
2018-12-14T12:49:19.166Z,12.90
2018-12-14T12:54:23.281Z,11.67
2018-12-14T12:59:28.000Z,13.07
2018-12-14T13:04:32.077Z,11.73
2018-12-14T13:09:36.144Z,14.30
2018-12-14T13:14:41.043Z,11.70
2018-12-14T13:19:45.149Z,12.40
2018-12-14T13:24:49.231Z,15.93
2018-12-14T13:29:53.329Z,14.63
2018-12-14T13:34:57.407Z,13.97
2018-12-14T13:40:01.499Z,13.10
2018-12-14T13:45:06.752Z,15.40
2018-12-14T13:50:11.717Z,11.97
2018-12-14T13:55:15.807Z,15.40
2018-12-14T14:00:19.950Z,13.73
2018-12-14T14:05:24.082Z,14.83
2018-12-14T14:10:28.178Z,14.67
2018-12-14T14:15:32.312Z,13.90
2018-12-14T14:20:36.486Z,12.93
2018-12-14T14:25:41.030Z,14.90
2018-12-14T14:30:45.169Z,14.53
2018-12-14T14:35:49.247Z,14.17
2018-12-14T14:40:53.355Z,11.73
2018-12-14T14:45:57.447Z,11.87
2018-12-14T14:51:01.520Z,12.70
2018-12-14T14:56:05.607Z,12.97
2018-12-14T15:01:09.712Z,12.77
2018-12-14T15:06:13.820Z,12.33
2018-12-14T15:11:18.018Z,15.00
2018-12-14T15:16:22.138Z,18.33
2018-12-14T15:21:26.297Z,18.13
2018-12-14T15:26:30.382Z,14.23
2018-12-14T15:31:34.527Z,13.43
2018-12-14T15:36:38.617Z,17.97
2018-12-14T15:41:42.689Z,14.90
2018-12-14T15:46:46.790Z,16.07
2018-12-14T15:51:50.912Z,18.17
2018-12-14T15:56:55.009Z,17.87
2018-12-14T16:01:59.099Z,16.37
2018-12-14T16:07:05.655Z,18.10
2018-12-14T16:12:10.216Z,16.27
2018-12-14T16:17:16.067Z,18.20
2018-12-14T16:22:21.849Z,17.93
2018-12-14T16:27:26.559Z,18.50
2018-12-14T16:32:30.688Z,17.27
2018-12-14T16:37:35.074Z,19.07
2018-12-14T16:42:39.167Z,16.20
2018-12-14T16:47:43.269Z,18.40
2018-12-14T16:52:47.710Z,20.57
2018-12-14T16:57:52.200Z,19.80
2018-12-14T17:02:56.759Z,20.03
2018-12-14T17:08:00.837Z,20.97
2018-12-14T17:13:04.957Z,20.93
2018-12-14T17:18:09.392Z,24.40
2018-12-14T17:23:13.681Z,19.60
2018-12-14T17:28:17.756Z,20.83
2018-12-14T17:33:21.848Z,21.93
2018-12-14T17:38:25.953Z,21.47
2018-12-14T17:43:30.153Z,22.20
2018-12-14T17:48:34.612Z,20.87
2018-12-14T17:53:38.749Z,23.17
2018-12-14T17:58:42.819Z,25.37
2018-12-14T18:03:47.183Z,21.70
2018-12-14T18:08:51.287Z,23.50
2018-12-14T18:13:55.357Z,21.43
2018-12-14T18:19:02.121Z,22.57
2018-12-14T18:24:06.333Z,25.03
2018-12-14T18:29:11.790Z,22.73
2018-12-14T18:34:16.097Z,23.23
2018-12-14T18:39:20.153Z,22.43
2018-12-14T18:44:24.638Z,23.27
2018-12-14T18:49:28.716Z,22.37
2018-12-14T18:54:32.832Z,22.47
2018-12-14T18:59:37.185Z,22.57
2018-12-14T19:04:41.423Z,23.70
2018-12-14T19:09:46.080Z,23.57
2018-12-14T19:14:50.646Z,22.60
2018-12-14T19:19:54.780Z,24.03
2018-12-14T19:24:58.915Z,23.93
2018-12-14T19:30:05.766Z,24.33
2018-12-14T19:35:10.028Z,23.67
2018-12-14T19:40:14.099Z,24.83
2018-12-14T19:45:18.655Z,22.67
2018-12-14T19:50:22.731Z,22.93
2018-12-14T19:55:26.862Z,26.60
2018-12-14T20:00:31.346Z,25.40
2018-12-14T20:05:35.410Z,25.13
2018-12-14T20:10:39.498Z,23.07
2018-12-14T20:15:43.576Z,25.87
2018-12-14T20:20:47.646Z,25.33
2018-12-14T20:25:51.776Z,23.07
2018-12-14T20:36:00.708Z,23.50
2018-12-14T20:41:04.882Z,27.17
2018-12-14T20:46:08.963Z,24.57
2018-12-14T20:51:13.053Z,28.67
2018-12-14T20:56:17.131Z,26.10
2018-12-14T21:01:21.228Z,26.83
2018-12-14T21:06:25.324Z,26.53
2018-12-14T21:11:29.913Z,28.07
2018-12-14T21:16:34.058Z,28.50
2018-12-14T21:21:38.191Z,27.77
2018-12-14T21:26:42.454Z,30.60
2018-12-14T21:31:46.563Z,29.80
2018-12-14T21:36:50.694Z,28.60
2018-12-14T21:41:54.790Z,29.83
2018-12-14T21:46:58.879Z,29.70
2018-12-14T21:52:03.003Z,33.73
2018-12-14T21:57:07.101Z,32.23
2018-12-14T22:02:11.750Z,27.87
2018-12-14T22:07:15.836Z,35.30
2018-12-14T22:12:19.895Z,32.43
2018-12-14T22:17:24.008Z,31.47
2018-12-14T22:22:28.132Z,32.63
2018-12-14T22:27:32.205Z,33.53
2018-12-14T22:32:36.278Z,33.57
2018-12-14T22:37:40.318Z,32.73
2018-12-14T22:42:44.394Z,31.00
2018-12-14T22:47:48.442Z,36.40
2018-12-14T22:52:52.645Z,33.33
2018-12-14T22:57:56.723Z,36.23
2018-12-14T23:03:00.874Z,29.27
2018-12-14T23:08:05.393Z,33.43
2018-12-14T23:13:09.481Z,29.00
2018-12-14T23:18:14.032Z,35.23
2018-12-14T23:23:18.083Z,29.30
2018-12-14T23:28:22.125Z,33.60
2018-12-14T23:33:26.166Z,31.10
2018-12-14T23:38:30.231Z,35.30
2018-12-14T23:43:34.274Z,31.23
2018-12-14T23:48:38.397Z,32.20
2018-12-14T23:53:42.498Z,32.30
2018-12-14T23:58:46.790Z,34.73
